ロングイェールビーン の空港の天気 - METARとTAF

スヴァールバル空港 ( ENSB / LYR ) - スヴァールバル諸島・ヤンマイエン島 ロングイェールビーン
飛行場実況気象(Metar)
観測時間10/20 05:50 CEST (10/20 03:50 UTC)
風向・風速南東 2m/s
視程10km以上
天気現象弱いしゅう雪
少しの雲 雲底高度 370m
全天の8割程度の雲 雲底高度 610m
気温-8℃
湿度86%
気圧1006hPa
METARENSB 200350Z 14004KT 110V170 9999 -SHSN FEW012 BKN020 M08/M10 Q1006 RMK WIND 1400FT 07004KT
過去の天気等 Google飛行場航空写真 Wunderground天気予報

過去48時間のMETAR

飛行場予報(TAF)
発表時間: -
20日2時 CEST ~ 20日14時 CEST に一時的に
風向・風速西南西 4m/s
視程4000m
天気現象弱いしゅう雪
全天を覆う雲 鉛直視程 370m
20日17時 CEST ~ 21日2時 CEST に一時的に
風向・風速北北東 5m/s
TAF ENSB 2000/2024 12010KT 9999 FEW015 BKN030
TEMPO 2000/2012 24008KT 4000 -SHSN VV012
TEMPO 2015/2024 03010KT